sensor_id;sensor_type;location;lat;lon;timestamp;temperature;humidity
20815;DHT22;10568;48.176;16.316;2023-10-13T00:02:11;16.50;99.90
20815;DHT22;10568;48.176;16.316;2023-10-13T00:04:39;16.50;99.90
20815;DHT22;10568;48.176;16.316;2023-10-13T00:07:05;16.50;99.90
20815;DHT22;10568;48.176;16.316;2023-10-13T00:09:34;16.50;99.90
20815;DHT22;10568;48.176;16.316;2023-10-13T00:12:08;16.50;99.90
20815;DHT22;10568;48.176;16.316;2023-10-13T00:14:48;16.50;99.90
20815;DHT22;10568;48.176;16.316;2023-10-13T00:17:16;16.50;99.90
20815;DHT22;10568;48.176;16.316;2023-10-13T00:19:46;16.50;99.90
20815;DHT22;10568;48.176;16.316;2023-10-13T00:22:15;16.50;99.90
20815;DHT22;10568;48.176;16.316;2023-10-13T00:24:46;16.50;99.90
20815;DHT22;10568;48.176;16.316;2023-10-13T00:27:13;16.50;99.90
20815;DHT22;10568;48.176;16.316;2023-10-13T00:30:04;16.50;99.90
20815;DHT22;10568;48.176;16.316;2023-10-13T00:32:59;16.50;99.90
20815;DHT22;10568;48.176;16.316;2023-10-13T00:35:28;16.50;99.90
20815;DHT22;10568;48.176;16.316;2023-10-13T00:37:58;16.50;99.90
20815;DHT22;10568;48.176;16.316;2023-10-13T00:40:30;16.50;99.90
20815;DHT22;10568;48.176;16.316;2023-10-13T00:42:57;16.50;99.90
20815;DHT22;10568;48.176;16.316;2023-10-13T00:45:56;16.50;99.90
20815;DHT22;10568;48.176;16.316;2023-10-13T00:48:33;16.50;99.90
20815;DHT22;10568;48.176;16.316;2023-10-13T00:51:03;16.50;99.90
20815;DHT22;10568;48.176;16.316;2023-10-13T00:53:33;16.50;99.90
20815;DHT22;10568;48.176;16.316;2023-10-13T00:56:01;16.60;99.90
20815;DHT22;10568;48.176;16.316;2023-10-13T00:58:34;16.60;99.90
20815;DHT22;10568;48.176;16.316;2023-10-13T01:01:03;16.60;99.90
20815;DHT22;10568;48.176;16.316;2023-10-13T01:03:56;16.60;99.90
20815;DHT22;10568;48.176;16.316;2023-10-13T01:06:28;16.60;99.90
20815;DHT22;10568;48.176;16.316;2023-10-13T01:09:10;16.50;99.90
20815;DHT22;10568;48.176;16.316;2023-10-13T01:11:40;16.50;99.90
20815;DHT22;10568;48.176;16.316;2023-10-13T01:14:08;16.50;99.90
20815;DHT22;10568;48.176;16.316;2023-10-13T01:16:37;16.30;99.90
20815;DHT22;10568;48.176;16.316;2023-10-13T01:19:12;16.30;99.90
20815;DHT22;10568;48.176;16.316;2023-10-13T01:21:40;16.30;99.90
20815;DHT22;10568;48.176;16.316;2023-10-13T01:24:13;16.30;99.90
20815;DHT22;10568;48.176;16.316;2023-10-13T01:26:43;16.30;99.90
20815;DHT22;10568;48.176;16.316;2023-10-13T01:29:09;16.30;99.90
20815;DHT22;10568;48.176;16.316;2023-10-13T01:31:39;16.30;99.90
20815;DHT22;10568;48.176;16.316;2023-10-13T01:34:18;16.30;99.90
20815;DHT22;10568;48.176;16.316;2023-10-13T01:36:54;16.30;99.90
20815;DHT22;10568;48.176;16.316;2023-10-13T01:39:24;16.30;99.90
20815;DHT22;10568;48.176;16.316;2023-10-13T01:41:55;16.30;99.90
20815;DHT22;10568;48.176;16.316;2023-10-13T01:44:24;16.30;99.90
20815;DHT22;10568;48.176;16.316;2023-10-13T01:46:56;16.30;99.90
20815;DHT22;10568;48.176;16.316;2023-10-13T01:49:25;16.30;99.90
20815;DHT22;10568;48.176;16.316;2023-10-13T01:51:51;16.30;99.90
20815;DHT22;10568;48.176;16.316;2023-10-13T01:54:17;16.20;99.90
20815;DHT22;10568;48.176;16.316;2023-10-13T01:56:43;16.20;99.90
20815;DHT22;10568;48.176;16.316;2023-10-13T01:59:12;16.20;99.90
20815;DHT22;10568;48.176;16.316;2023-10-13T02:01:38;16.20;99.90
20815;DHT22;10568;48.176;16.316;2023-10-13T02:04:05;16.20;99.90
20815;DHT22;10568;48.176;16.316;2023-10-13T02:06:33;16.20;99.90
20815;DHT22;10568;48.176;16.316;2023-10-13T02:09:00;16.20;99.90
20815;DHT22;10568;48.176;16.316;2023-10-13T02:11:38;16.20;99.90
20815;DHT22;10568;48.176;16.316;2023-10-13T02:14:04;16.20;99.90
20815;DHT22;10568;48.176;16.316;2023-10-13T02:16:29;16.20;99.90
20815;DHT22;10568;48.176;16.316;2023-10-13T02:18:57;16.20;99.90
20815;DHT22;10568;48.176;16.316;2023-10-13T02:21:23;16.20;99.90
20815;DHT22;10568;48.176;16.316;2023-10-13T02:23:57;16.20;99.90
20815;DHT22;10568;48.176;16.316;2023-10-13T02:26:30;16.20;99.90
20815;DHT22;10568;48.176;16.316;2023-10-13T02:28:58;16.10;99.90
20815;DHT22;10568;48.176;16.316;2023-10-13T02:31:27;16.20;99.90
20815;DHT22;10568;48.176;16.316;2023-10-13T02:33:53;16.10;99.90
20815;DHT22;10568;48.176;16.316;2023-10-13T02:36:19;16.10;99.90
20815;DHT22;10568;48.176;16.316;2023-10-13T02:39:05;16.10;99.90
20815;DHT22;10568;48.176;16.316;2023-10-13T02:41:35;16.00;99.90
20815;DHT22;10568;48.176;16.316;2023-10-13T02:44:04;16.00;99.90
20815;DHT22;10568;48.176;16.316;2023-10-13T02:46:45;16.00;99.90
20815;DHT22;10568;48.176;16.316;2023-10-13T02:49:16;16.00;99.90
20815;DHT22;10568;48.176;16.316;2023-10-13T02:51:45;16.00;99.90
20815;DHT22;10568;48.176;16.316;2023-10-13T02:54:11;16.00;99.90
20815;DHT22;10568;48.176;16.316;2023-10-13T02:56:46;16.00;99.90
20815;DHT22;10568;48.176;16.316;2023-10-13T02:59:25;16.00;99.90
20815;DHT22;10568;48.176;16.316;2023-10-13T03:02:04;16.00;99.90
20815;DHT22;10568;48.176;16.316;2023-10-13T03:04:48;16.00;99.90
20815;DHT22;10568;48.176;16.316;2023-10-13T03:07:14;16.00;99.90
20815;DHT22;10568;48.176;16.316;2023-10-13T03:09:49;16.00;99.90
20815;DHT22;10568;48.176;16.316;2023-10-13T03:12:16;16.00;99.90
20815;DHT22;10568;48.176;16.316;2023-10-13T03:14:42;16.00;99.90
20815;DHT22;10568;48.176;16.316;2023-10-13T03:17:13;16.00;99.90
20815;DHT22;10568;48.176;16.316;2023-10-13T03:19:59;16.00;99.90
20815;DHT22;10568;48.176;16.316;2023-10-13T03:22:25;16.00;99.90
20815;DHT22;10568;48.176;16.316;2023-10-13T03:25:00;16.00;99.90
20815;DHT22;10568;48.176;16.316;2023-10-13T03:27:34;16.00;99.90
20815;DHT22;10568;48.176;16.316;2023-10-13T03:30:26;16.00;99.90
20815;DHT22;10568;48.176;16.316;2023-10-13T03:33:02;16.00;99.90
20815;DHT22;10568;48.176;16.316;2023-10-13T03:35:35;16.00;99.90
20815;DHT22;10568;48.176;16.316;2023-10-13T03:38:07;16.00;99.90
20815;DHT22;10568;48.176;16.316;2023-10-13T03:40:43;16.00;99.90
20815;DHT22;10568;48.176;16.316;2023-10-13T03:43:14;16.00;99.90
20815;DHT22;10568;48.176;16.316;2023-10-13T03:45:48;16.00;99.90
20815;DHT22;10568;48.176;16.316;2023-10-13T03:48:17;16.00;99.90
20815;DHT22;10568;48.176;16.316;2023-10-13T03:50:59;16.00;99.90
20815;DHT22;10568;48.176;16.316;2023-10-13T03:53:42;16.00;99.90
20815;DHT22;10568;48.176;16.316;2023-10-13T03:56:21;16.00;99.90
20815;DHT22;10568;48.176;16.316;2023-10-13T03:58:57;16.00;99.90
20815;DHT22;10568;48.176;16.316;2023-10-13T04:01:35;16.00;99.90
20815;DHT22;10568;48.176;16.316;2023-10-13T04:04:15;16.00;99.90
20815;DHT22;10568;48.176;16.316;2023-10-13T04:06:43;16.00;99.90
20815;DHT22;10568;48.176;16.316;2023-10-13T04:09:19;16.00;99.90
20815;DHT22;10568;48.176;16.316;2023-10-13T04:12:01;16.10;99.90
20815;DHT22;10568;48.176;16.316;2023-10-13T04:14:32;16.10;99.90
20815;DHT22;10568;48.176;16.316;2023-10-13T04:17:10;16.10;99.90
20815;DHT22;10568;48.176;16.316;2023-10-13T04:20:02;16.10;99.90
20815;DHT22;10568;48.176;16.316;2023-10-13T04:22:41;16.10;99.90
20815;DHT22;10568;48.176;16.316;2023-10-13T04:25:13;16.10;99.90
20815;DHT22;10568;48.176;16.316;2023-10-13T04:27:58;16.10;99.90
20815;DHT22;10568;48.176;16.316;2023-10-13T04:30:42;16.10;99.90
20815;DHT22;10568;48.176;16.316;2023-10-13T04:33:25;16.10;99.90
20815;DHT22;10568;48.176;16.316;2023-10-13T04:36:03;16.10;99.90
20815;DHT22;10568;48.176;16.316;2023-10-13T04:38:48;16.10;99.90
20815;DHT22;10568;48.176;16.316;2023-10-13T04:41:43;16.10;99.90
20815;DHT22;10568;48.176;16.316;2023-10-13T04:44:16;16.20;99.90
20815;DHT22;10568;48.176;16.316;2023-10-13T04:47:00;16.10;99.90
20815;DHT22;10568;48.176;16.316;2023-10-13T04:49:30;16.10;99.90
20815;DHT22;10568;48.176;16.316;2023-10-13T04:52:11;16.10;99.90
20815;DHT22;10568;48.176;16.316;2023-10-13T04:54:39;16.10;99.90
20815;DHT22;10568;48.176;16.316;2023-10-13T04:57:24;16.10;99.90
20815;DHT22;10568;48.176;16.316;2023-10-13T05:00:09;16.10;99.90
20815;DHT22;10568;48.176;16.316;2023-10-13T05:02:35;16.10;99.90
20815;DHT22;10568;48.176;16.316;2023-10-13T05:05:03;16.10;99.90
20815;DHT22;10568;48.176;16.316;2023-10-13T05:07:49;16.10;99.90
20815;DHT22;10568;48.176;16.316;2023-10-13T05:10:35;16.00;99.90
20815;DHT22;10568;48.176;16.316;2023-10-13T05:13:19;16.00;99.90
20815;DHT22;10568;48.176;16.316;2023-10-13T05:16:04;16.00;99.90
20815;DHT22;10568;48.176;16.316;2023-10-13T05:18:48;16.00;99.90
20815;DHT22;10568;48.176;16.316;2023-10-13T05:21:33;16.00;99.90
20815;DHT22;10568;48.176;16.316;2023-10-13T05:24:17;16.00;99.90
20815;DHT22;10568;48.176;16.316;2023-10-13T05:27:02;16.00;99.90
20815;DHT22;10568;48.176;16.316;2023-10-13T05:29:47;15.90;99.90
20815;DHT22;10568;48.176;16.316;2023-10-13T05:32:40;15.90;99.90
20815;DHT22;10568;48.176;16.316;2023-10-13T05:35:24;15.90;99.90
20815;DHT22;10568;48.176;16.316;2023-10-13T05:38:09;15.90;99.90
20815;DHT22;10568;48.176;16.316;2023-10-13T05:40:56;15.90;99.90
20815;DHT22;10568;48.176;16.316;2023-10-13T05:43:40;15.90;99.90
20815;DHT22;10568;48.176;16.316;2023-10-13T05:46:24;15.90;99.90
20815;DHT22;10568;48.176;16.316;2023-10-13T05:48:51;15.90;99.90
20815;DHT22;10568;48.176;16.316;2023-10-13T05:51:23;15.90;99.90
20815;DHT22;10568;48.176;16.316;2023-10-13T05:54:02;15.90;99.90
20815;DHT22;10568;48.176;16.316;2023-10-13T05:56:43;16.00;99.90
20815;DHT22;10568;48.176;16.316;2023-10-13T05:59:29;16.00;99.90
20815;DHT22;10568;48.176;16.316;2023-10-13T06:02:15;16.00;99.90
20815;DHT22;10568;48.176;16.316;2023-10-13T06:05:12;16.00;99.90
20815;DHT22;10568;48.176;16.316;2023-10-13T06:07:57;16.10;99.90
20815;DHT22;10568;48.176;16.316;2023-10-13T06:10:42;16.10;99.90
20815;DHT22;10568;48.176;16.316;2023-10-13T06:13:26;16.10;99.90
20815;DHT22;10568;48.176;16.316;2023-10-13T06:16:12;16.20;99.90
20815;DHT22;10568;48.176;16.316;2023-10-13T06:18:57;16.20;99.90
20815;DHT22;10568;48.176;16.316;2023-10-13T06:21:42;16.20;99.90
20815;DHT22;10568;48.176;16.316;2023-10-13T06:24:27;16.20;99.90
20815;DHT22;10568;48.176;16.316;2023-10-13T06:27:11;16.30;99.90
20815;DHT22;10568;48.176;16.316;2023-10-13T06:29:55;16.40;99.90
20815;DHT22;10568;48.176;16.316;2023-10-13T06:32:21;16.40;99.90
20815;DHT22;10568;48.176;16.316;2023-10-13T06:34:54;16.50;99.90
20815;DHT22;10568;48.176;16.316;2023-10-13T06:37:26;16.60;99.90
20815;DHT22;10568;48.176;16.316;2023-10-13T06:39:57;16.60;99.90
20815;DHT22;10568;48.176;16.316;2023-10-13T06:42:23;16.60;99.90
20815;DHT22;10568;48.176;16.316;2023-10-13T06:44:53;16.60;99.90
20815;DHT22;10568;48.176;16.316;2023-10-13T06:47:19;16.60;99.90
20815;DHT22;10568;48.176;16.316;2023-10-13T06:49:46;16.70;99.90
20815;DHT22;10568;48.176;16.316;2023-10-13T06:52:14;16.70;99.90
20815;DHT22;10568;48.176;16.316;2023-10-13T06:54:41;16.70;99.90
20815;DHT22;10568;48.176;16.316;2023-10-13T06:57:09;16.70;99.90
20815;DHT22;10568;48.176;16.316;2023-10-13T06:59:40;16.80;99.90
20815;DHT22;10568;48.176;16.316;2023-10-13T07:02:07;16.80;99.90
20815;DHT22;10568;48.176;16.316;2023-10-13T07:04:45;16.80;99.90
20815;DHT22;10568;48.176;16.316;2023-10-13T07:07:12;16.80;99.90
20815;DHT22;10568;48.176;16.316;2023-10-13T07:09:44;16.80;99.90
20815;DHT22;10568;48.176;16.316;2023-10-13T07:12:21;16.90;99.90
20815;DHT22;10568;48.176;16.316;2023-10-13T07:14:53;16.90;99.90
20815;DHT22;10568;48.176;16.316;2023-10-13T07:17:39;17.00;99.90
20815;DHT22;10568;48.176;16.316;2023-10-13T07:20:07;17.00;99.90
20815;DHT22;10568;48.176;16.316;2023-10-13T07:23:02;17.00;99.90
20815;DHT22;10568;48.176;16.316;2023-10-13T07:25:31;17.10;99.90
20815;DHT22;10568;48.176;16.316;2023-10-13T07:28:03;17.10;99.90
20815;DHT22;10568;48.176;16.316;2023-10-13T07:30:29;17.20;99.90
20815;DHT22;10568;48.176;16.316;2023-10-13T07:33:05;17.30;99.90
20815;DHT22;10568;48.176;16.316;2023-10-13T07:35:31;17.30;99.90
20815;DHT22;10568;48.176;16.316;2023-10-13T07:38:01;17.40;99.90
20815;DHT22;10568;48.176;16.316;2023-10-13T07:40:27;17.50;99.90
20815;DHT22;10568;48.176;16.316;2023-10-13T07:42:54;17.60;99.90
20815;DHT22;10568;48.176;16.316;2023-10-13T07:45:39;17.70;99.90
20815;DHT22;10568;48.176;16.316;2023-10-13T07:48:07;17.80;99.90
20815;DHT22;10568;48.176;16.316;2023-10-13T07:50:40;17.90;99.90
20815;DHT22;10568;48.176;16.316;2023-10-13T07:53:06;18.00;99.90
20815;DHT22;10568;48.176;16.316;2023-10-13T07:55:47;18.00;99.90
20815;DHT22;10568;48.176;16.316;2023-10-13T07:58:13;18.00;99.90
20815;DHT22;10568;48.176;16.316;2023-10-13T08:00:39;18.00;99.90
20815;DHT22;10568;48.176;16.316;2023-10-13T08:03:11;18.10;99.90
20815;DHT22;10568;48.176;16.316;2023-10-13T08:08:24;18.20;99.90
20815;DHT22;10568;48.176;16.316;2023-10-13T08:11:13;18.20;99.90
20815;DHT22;10568;48.176;16.316;2023-10-13T08:13:48;18.30;99.90
20815;DHT22;10568;48.176;16.316;2023-10-13T08:16:22;18.40;99.90
20815;DHT22;10568;48.176;16.316;2023-10-13T08:18:52;18.40;99.90
20815;DHT22;10568;48.176;16.316;2023-10-13T08:21:19;18.50;99.90
20815;DHT22;10568;48.176;16.316;2023-10-13T08:23:57;18.50;99.90
20815;DHT22;10568;48.176;16.316;2023-10-13T08:26:42;18.60;99.90
20815;DHT22;10568;48.176;16.316;2023-10-13T08:29:24;18.70;99.90
20815;DHT22;10568;48.176;16.316;2023-10-13T08:31:55;18.70;99.90
20815;DHT22;10568;48.176;16.316;2023-10-13T08:34:40;18.90;99.90
20815;DHT22;10568;48.176;16.316;2023-10-13T08:37:12;18.90;99.90
20815;DHT22;10568;48.176;16.316;2023-10-13T08:39:51;19.00;99.90
20815;DHT22;10568;48.176;16.316;2023-10-13T08:42:29;19.10;99.90
20815;DHT22;10568;48.176;16.316;2023-10-13T08:45:01;19.20;99.90
20815;DHT22;10568;48.176;16.316;2023-10-13T08:47:30;19.20;99.90
20815;DHT22;10568;48.176;16.316;2023-10-13T08:50:03;19.30;99.90
20815;DHT22;10568;48.176;16.316;2023-10-13T08:52:58;19.40;99.90
20815;DHT22;10568;48.176;16.316;2023-10-13T08:55:25;19.60;99.90
20815;DHT22;10568;48.176;16.316;2023-10-13T08:58:03;19.90;99.90
20815;DHT22;10568;48.176;16.316;2023-10-13T09:00:41;20.30;99.90
20815;DHT22;10568;48.176;16.316;2023-10-13T09:03:21;20.50;99.90
20815;DHT22;10568;48.176;16.316;2023-10-13T09:06:13;20.80;99.90
20815;DHT22;10568;48.176;16.316;2023-10-13T09:08:45;20.90;99.90
20815;DHT22;10568;48.176;16.316;2023-10-13T09:11:33;21.10;99.90
20815;DHT22;10568;48.176;16.316;2023-10-13T09:14:14;21.20;99.90
20815;DHT22;10568;48.176;16.316;2023-10-13T09:17:08;21.20;99.90
20815;DHT22;10568;48.176;16.316;2023-10-13T09:20:05;21.30;99.90
20815;DHT22;10568;48.176;16.316;2023-10-13T09:22:55;21.30;99.90
20815;DHT22;10568;48.176;16.316;2023-10-13T09:25:33;21.50;99.90
20815;DHT22;10568;48.176;16.316;2023-10-13T09:28:14;21.60;99.90
20815;DHT22;10568;48.176;16.316;2023-10-13T09:33:13;21.90;99.90
20815;DHT22;10568;48.176;16.316;2023-10-13T09:35:45;22.20;99.90
20815;DHT22;10568;48.176;16.316;2023-10-13T09:38:17;22.40;99.90
20815;DHT22;10568;48.176;16.316;2023-10-13T09:40:44;22.60;99.90
20815;DHT22;10568;48.176;16.316;2023-10-13T09:43:18;23.00;99.90
20815;DHT22;10568;48.176;16.316;2023-10-13T09:45:49;23.30;99.90
20815;DHT22;10568;48.176;16.316;2023-10-13T09:48:44;23.60;99.90
20815;DHT22;10568;48.176;16.316;2023-10-13T09:51:30;23.90;99.90
20815;DHT22;10568;48.176;16.316;2023-10-13T09:54:14;24.30;99.90
20815;DHT22;10568;48.176;16.316;2023-10-13T09:56:47;24.70;99.90
20815;DHT22;10568;48.176;16.316;2023-10-13T09:59:22;24.90;99.90
20815;DHT22;10568;48.176;16.316;2023-10-13T10:01:51;25.30;99.90
20815;DHT22;10568;48.176;16.316;2023-10-13T10:04:34;25.60;99.90
20815;DHT22;10568;48.176;16.316;2023-10-13T10:07:10;25.80;99.90
20815;DHT22;10568;48.176;16.316;2023-10-13T10:09:36;25.90;99.90
20815;DHT22;10568;48.176;16.316;2023-10-13T10:17:43;26.30;99.90
20815;DHT22;10568;48.176;16.316;2023-10-13T10:20:09;26.70;99.90
20815;DHT22;10568;48.176;16.316;2023-10-13T10:22:56;26.80;99.90
20815;DHT22;10568;48.176;16.316;2023-10-13T10:25:34;26.80;99.90
20815;DHT22;10568;48.176;16.316;2023-10-13T10:28:05;27.00;99.90
20815;DHT22;10568;48.176;16.316;2023-10-13T10:30:36;27.20;99.90
20815;DHT22;10568;48.176;16.316;2023-10-13T10:33:05;27.40;99.90
20815;DHT22;10568;48.176;16.316;2023-10-13T10:35:42;27.30;99.90
20815;DHT22;10568;48.176;16.316;2023-10-13T10:38:15;27.50;99.90
20815;DHT22;10568;48.176;16.316;2023-10-13T10:41:06;27.50;99.90
20815;DHT22;10568;48.176;16.316;2023-10-13T10:48:39;27.80;99.90
20815;DHT22;10568;48.176;16.316;2023-10-13T10:51:12;27.90;99.90
20815;DHT22;10568;48.176;16.316;2023-10-13T10:53:49;27.90;99.90
20815;DHT22;10568;48.176;16.316;2023-10-13T10:56:19;27.80;99.90
20815;DHT22;10568;48.176;16.316;2023-10-13T10:58:58;28.00;99.90
20815;DHT22;10568;48.176;16.316;2023-10-13T11:01:27;27.70;99.90
20815;DHT22;10568;48.176;16.316;2023-10-13T11:04:00;27.90;99.90
20815;DHT22;10568;48.176;16.316;2023-10-13T11:06:57;27.80;99.90
20815;DHT22;10568;48.176;16.316;2023-10-13T11:09:34;27.60;99.90
20815;DHT22;10568;48.176;16.316;2023-10-13T11:14:32;27.80;99.90
20815;DHT22;10568;48.176;16.316;2023-10-13T11:16:59;27.70;99.90
20815;DHT22;10568;48.176;16.316;2023-10-13T11:19:43;27.50;99.90
20815;DHT22;10568;48.176;16.316;2023-10-13T11:24:59;27.50;99.90
20815;DHT22;10568;48.176;16.316;2023-10-13T11:27:32;27.60;99.90
20815;DHT22;10568;48.176;16.316;2023-10-13T11:30:17;27.60;99.90
20815;DHT22;10568;48.176;16.316;2023-10-13T11:33:09;27.50;99.90
20815;DHT22;10568;48.176;16.316;2023-10-13T11:35:39;27.50;99.90
20815;DHT22;10568;48.176;16.316;2023-10-13T11:38:34;27.30;99.90
20815;DHT22;10568;48.176;16.316;2023-10-13T11:41:09;27.30;99.90
20815;DHT22;10568;48.176;16.316;2023-10-13T11:43:43;27.40;99.90
20815;DHT22;10568;48.176;16.316;2023-10-13T11:46:15;27.30;99.90
20815;DHT22;10568;48.176;16.316;2023-10-13T11:48:43;27.20;99.90
20815;DHT22;10568;48.176;16.316;2023-10-13T11:51:14;27.30;99.70
20815;DHT22;10568;48.176;16.316;2023-10-13T11:53:46;27.20;99.90
20815;DHT22;10568;48.176;16.316;2023-10-13T11:56:18;27.20;99.90
20815;DHT22;10568;48.176;16.316;2023-10-13T11:58:47;27.20;98.50
20815;DHT22;10568;48.176;16.316;2023-10-13T12:01:13;27.10;99.90
20815;DHT22;10568;48.176;16.316;2023-10-13T12:03:44;26.90;99.90
20815;DHT22;10568;48.176;16.316;2023-10-13T12:06:30;26.70;99.90
20815;DHT22;10568;48.176;16.316;2023-10-13T12:09:12;26.50;99.90
20815;DHT22;10568;48.176;16.316;2023-10-13T12:11:45;26.40;99.90
20815;DHT22;10568;48.176;16.316;2023-10-13T12:14:15;26.30;99.90
20815;DHT22;10568;48.176;16.316;2023-10-13T12:17:06;26.10;99.90
20815;DHT22;10568;48.176;16.316;2023-10-13T12:19:36;26.00;99.90
20815;DHT22;10568;48.176;16.316;2023-10-13T12:22:04;26.00;99.90
20815;DHT22;10568;48.176;16.316;2023-10-13T12:24:34;25.80;99.90
20815;DHT22;10568;48.176;16.316;2023-10-13T12:27:03;25.80;99.90
20815;DHT22;10568;48.176;16.316;2023-10-13T12:29:47;25.70;99.90
20815;DHT22;10568;48.176;16.316;2023-10-13T12:32:14;25.60;99.90
20815;DHT22;10568;48.176;16.316;2023-10-13T12:34:41;25.60;99.90
20815;DHT22;10568;48.176;16.316;2023-10-13T12:37:33;25.60;99.90
20815;DHT22;10568;48.176;16.316;2023-10-13T12:42:54;25.40;99.90
20815;DHT22;10568;48.176;16.316;2023-10-13T12:45:42;25.40;99.90
20815;DHT22;10568;48.176;16.316;2023-10-13T12:48:27;25.40;99.90
20815;DHT22;10568;48.176;16.316;2023-10-13T12:51:12;25.30;99.90
20815;DHT22;10568;48.176;16.316;2023-10-13T12:54:06;25.30;99.90
20815;DHT22;10568;48.176;16.316;2023-10-13T12:56:46;25.30;99.90
20815;DHT22;10568;48.176;16.316;2023-10-13T12:59:30;25.40;99.90
20815;DHT22;10568;48.176;16.316;2023-10-13T13:01:56;25.40;99.90
20815;DHT22;10568;48.176;16.316;2023-10-13T13:04:21;25.40;99.90
20815;DHT22;10568;48.176;16.316;2023-10-13T13:06:48;25.40;99.90
20815;DHT22;10568;48.176;16.316;2023-10-13T13:09:14;25.40;99.90
20815;DHT22;10568;48.176;16.316;2023-10-13T13:11:40;25.40;99.90
20815;DHT22;10568;48.176;16.316;2023-10-13T13:14:09;25.40;99.90
20815;DHT22;10568;48.176;16.316;2023-10-13T13:16:36;25.50;99.90
20815;DHT22;10568;48.176;16.316;2023-10-13T13:19:04;25.50;99.90
20815;DHT22;10568;48.176;16.316;2023-10-13T13:21:37;25.40;99.90
20815;DHT22;10568;48.176;16.316;2023-10-13T13:24:03;25.40;99.90
20815;DHT22;10568;48.176;16.316;2023-10-13T13:26:30;25.40;99.90
20815;DHT22;10568;48.176;16.316;2023-10-13T13:28:56;25.40;99.90
20815;DHT22;10568;48.176;16.316;2023-10-13T13:31:23;25.50;99.90
20815;DHT22;10568;48.176;16.316;2023-10-13T13:34:09;25.40;99.90
20815;DHT22;10568;48.176;16.316;2023-10-13T13:36:36;25.40;99.90
20815;DHT22;10568;48.176;16.316;2023-10-13T13:39:02;25.40;99.90
20815;DHT22;10568;48.176;16.316;2023-10-13T13:41:28;25.40;99.90
20815;DHT22;10568;48.176;16.316;2023-10-13T13:43:58;25.30;99.90
20815;DHT22;10568;48.176;16.316;2023-10-13T13:46:38;25.20;99.90
20815;DHT22;10568;48.176;16.316;2023-10-13T13:49:07;25.30;99.90
20815;DHT22;10568;48.176;16.316;2023-10-13T13:51:44;25.20;99.90
20815;DHT22;10568;48.176;16.316;2023-10-13T13:54:09;25.20;99.90
20815;DHT22;10568;48.176;16.316;2023-10-13T13:56:35;25.20;99.90
20815;DHT22;10568;48.176;16.316;2023-10-13T13:59:04;25.20;99.90
20815;DHT22;10568;48.176;16.316;2023-10-13T14:01:40;25.20;99.90
20815;DHT22;10568;48.176;16.316;2023-10-13T14:04:05;25.20;99.90
20815;DHT22;10568;48.176;16.316;2023-10-13T14:06:32;25.10;99.90
20815;DHT22;10568;48.176;16.316;2023-10-13T14:09:00;25.10;99.90
20815;DHT22;10568;48.176;16.316;2023-10-13T14:11:32;25.00;99.90
20815;DHT22;10568;48.176;16.316;2023-10-13T14:16:52;24.70;99.90
20815;DHT22;10568;48.176;16.316;2023-10-13T14:19:19;24.70;99.90
20815;DHT22;10568;48.176;16.316;2023-10-13T14:22:01;24.60;99.90
20815;DHT22;10568;48.176;16.316;2023-10-13T14:24:33;24.50;99.90
20815;DHT22;10568;48.176;16.316;2023-10-13T14:27:03;24.40;99.90
20815;DHT22;10568;48.176;16.316;2023-10-13T14:29:43;24.30;99.90
20815;DHT22;10568;48.176;16.316;2023-10-13T14:32:09;24.20;99.90
20815;DHT22;10568;48.176;16.316;2023-10-13T14:34:43;24.10;99.90
20815;DHT22;10568;48.176;16.316;2023-10-13T14:37:10;24.00;99.90
20815;DHT22;10568;48.176;16.316;2023-10-13T14:39:41;24.00;99.90
20815;DHT22;10568;48.176;16.316;2023-10-13T14:42:07;23.90;99.90
20815;DHT22;10568;48.176;16.316;2023-10-13T14:44:33;23.90;99.90
20815;DHT22;10568;48.176;16.316;2023-10-13T14:47:03;23.80;99.90
20815;DHT22;10568;48.176;16.316;2023-10-13T14:49:31;23.80;99.90
20815;DHT22;10568;48.176;16.316;2023-10-13T14:51:57;23.70;99.90
20815;DHT22;10568;48.176;16.316;2023-10-13T14:54:25;23.60;99.90
20815;DHT22;10568;48.176;16.316;2023-10-13T14:57:02;23.50;99.90
20815;DHT22;10568;48.176;16.316;2023-10-13T14:59:29;23.50;99.90
20815;DHT22;10568;48.176;16.316;2023-10-13T15:02:03;23.50;99.90
20815;DHT22;10568;48.176;16.316;2023-10-13T15:04:29;23.30;99.90
20815;DHT22;10568;48.176;16.316;2023-10-13T15:06:59;23.20;99.90
20815;DHT22;10568;48.176;16.316;2023-10-13T15:09:28;23.10;99.90
20815;DHT22;10568;48.176;16.316;2023-10-13T15:11:53;23.10;99.90
20815;DHT22;10568;48.176;16.316;2023-10-13T15:14:20;23.00;99.90
20815;DHT22;10568;48.176;16.316;2023-10-13T15:16:46;22.90;99.90
20815;DHT22;10568;48.176;16.316;2023-10-13T15:19:12;22.90;99.90
20815;DHT22;10568;48.176;16.316;2023-10-13T15:21:38;22.80;99.90
20815;DHT22;10568;48.176;16.316;2023-10-13T15:24:08;22.80;99.90
20815;DHT22;10568;48.176;16.316;2023-10-13T15:26:41;22.70;99.90
20815;DHT22;10568;48.176;16.316;2023-10-13T15:29:17;22.60;99.90
20815;DHT22;10568;48.176;16.316;2023-10-13T15:31:47;22.50;99.90
20815;DHT22;10568;48.176;16.316;2023-10-13T15:34:21;22.40;99.90
20815;DHT22;10568;48.176;16.316;2023-10-13T15:36:49;22.30;99.90
20815;DHT22;10568;48.176;16.316;2023-10-13T15:39:18;22.20;99.90
20815;DHT22;10568;48.176;16.316;2023-10-13T15:41:49;22.10;99.90
20815;DHT22;10568;48.176;16.316;2023-10-13T15:44:19;22.10;99.90
20815;DHT22;10568;48.176;16.316;2023-10-13T15:46:46;22.00;99.90
20815;DHT22;10568;48.176;16.316;2023-10-13T15:49:17;21.90;99.90
20815;DHT22;10568;48.176;16.316;2023-10-13T15:51:43;21.80;99.90
20815;DHT22;10568;48.176;16.316;2023-10-13T15:54:09;21.70;99.90
20815;DHT22;10568;48.176;16.316;2023-10-13T15:56:45;21.60;99.90
20815;DHT22;10568;48.176;16.316;2023-10-13T15:59:12;21.50;99.90
20815;DHT22;10568;48.176;16.316;2023-10-13T16:01:38;21.40;99.90
20815;DHT22;10568;48.176;16.316;2023-10-13T16:04:07;21.30;99.90
20815;DHT22;10568;48.176;16.316;2023-10-13T16:06:41;21.20;99.90
20815;DHT22;10568;48.176;16.316;2023-10-13T16:09:07;21.10;99.90
20815;DHT22;10568;48.176;16.316;2023-10-13T16:11:45;21.00;99.90
20815;DHT22;10568;48.176;16.316;2023-10-13T16:14:12;21.00;99.90
20815;DHT22;10568;48.176;16.316;2023-10-13T16:16:45;20.90;99.90
20815;DHT22;10568;48.176;16.316;2023-10-13T16:19:21;20.80;99.90
20815;DHT22;10568;48.176;16.316;2023-10-13T16:21:47;20.70;99.90
20815;DHT22;10568;48.176;16.316;2023-10-13T16:24:14;20.60;99.90
20815;DHT22;10568;48.176;16.316;2023-10-13T16:26:49;20.50;99.90